Time;durP1;ratioP1;P1;durP2;ratioP2;P2;SDS_P1;SDS_P2;PMS_P1;PMS_P2;Temp;Humidity;BMP_temperature;BMP_pressure;BME280_temperature;BME280_humidity;BME280_pressure;Samples;Min_cycle;Max_cycle;Signal;HPM_P1;HPM_P2
2023/12/06 00:01:49;;;;;;;26.50;13.32;;;-5.40;95.80;;;;;;4936199;29;20016;-77
2023/12/06 00:04:15;;;;;;;26.73;12.05;;;-5.50;95.70;;;;;;4934280;29;20068;-78
2023/12/06 00:06:40;;;;;;;19.85;12.13;;;-5.50;95.60;;;;;;4932883;29;20103;-77
2023/12/06 00:09:06;;;;;;;22.55;10.77;;;-5.60;95.60;;;;;;4932799;29;20507;-78
2023/12/06 00:11:32;;;;;;;23.45;13.50;;;-5.60;95.60;;;;;;4918804;29;20032;-77
2023/12/06 00:13:58;;;;;;;17.48;12.07;;;-5.60;95.60;;;;;;4935822;29;20027;-76
2023/12/06 00:16:24;;;;;;;21.52;12.45;;;-5.70;95.90;;;;;;4935874;29;20079;-78
2023/12/06 00:18:51;;;;;;;21.90;12.18;;;-5.80;96.10;;;;;;4918945;29;20031;-78
2023/12/06 00:21:17;;;;;;;25.88;15.63;;;-5.80;96.10;;;;;;4936569;29;20031;-77
2023/12/06 00:23:43;;;;;;;26.15;11.85;;;-5.80;96.00;;;;;;4935829;29;20032;-78
2023/12/06 00:26:09;;;;;;;23.88;11.77;;;-5.80;96.00;;;;;;4935699;29;20035;-76
2023/12/06 00:28:34;;;;;;;21.88;12.05;;;-5.90;96.00;;;;;;4935759;29;20016;-78
2023/12/06 00:31:00;;;;;;;21.08;12.60;;;-5.90;96.00;;;;;;4918714;29;20036;-77
2023/12/06 00:33:28;;;;;;;26.20;11.95;;;-5.90;96.00;;;;;;4935429;29;20030;-78
2023/12/06 00:35:53;;;;;;;;;;;-5.90;96.10;;;;;;4938189;29;20058;-77
2023/12/06 00:38:19;;;;;;;16.23;9.00;;;-5.90;96.10;;;;;;4935385;29;20368;-78
2023/12/06 00:40:45;;;;;;;23.75;11.70;;;-6.00;96.30;;;;;;4917885;29;20385;-78
2023/12/06 00:43:11;;;;;;;29.27;13.60;;;-6.00;96.40;;;;;;4933844;29;20028;-78
2023/12/06 00:45:37;;;;;;;25.33;10.97;;;-6.00;96.50;;;;;;4928926;29;20036;-76
2023/12/06 00:48:03;;;;;;;28.27;12.90;;;-6.00;96.50;;;;;;4935211;29;20752;-77
2023/12/06 00:50:29;;;;;;;21.73;12.23;;;-6.00;96.60;;;;;;4912716;29;20418;-79
2023/12/06 00:52:55;;;;;;;24.80;12.30;;;-6.10;96.60;;;;;;4926982;29;20028;-77
2023/12/06 00:55:20;;;;;;;22.50;13.88;;;-6.00;96.70;;;;;;4935815;29;20032;-77
2023/12/06 00:57:46;;;;;;;30.33;14.20;;;-6.00;96.70;;;;;;4934696;29;20020;-79
2023/12/06 01:00:15;;;;;;;26.05;14.40;;;-6.10;96.60;;;;;;4934960;29;20020;-78
2023/12/06 01:02:41;;;;;;;25.85;14.98;;;-6.10;96.80;;;;;;4933892;29;20053;-78
2023/12/06 01:05:07;;;;;;;23.33;13.00;;;-6.00;96.80;;;;;;4929502;29;20047;-77
2023/12/06 01:07:33;;;;;;;26.55;12.70;;;-6.10;96.80;;;;;;4934221;29;20042;-78
2023/12/06 01:09:59;;;;;;;29.17;14.05;;;-6.10;97.10;;;;;;4935651;29;20430;-77
2023/12/06 01:12:25;;;;;;;27.70;13.23;;;-6.10;97.10;;;;;;4925727;29;20016;-79
2023/12/06 01:14:51;;;;;;;27.67;13.27;;;-6.10;97.00;;;;;;4934828;29;20032;-76
2023/12/06 01:17:16;;;;;;;21.92;13.00;;;-6.20;96.90;;;;;;4929896;29;20020;-78
2023/12/06 01:19:42;;;;;;;26.92;12.68;;;-6.20;96.80;;;;;;4934846;29;20019;-77
2023/12/06 01:22:08;;;;;;;28.70;14.80;;;-6.20;96.80;;;;;;4934968;29;20028;-76
2023/12/06 01:24:34;;;;;;;24.00;13.05;;;-6.20;96.60;;;;;;4922508;29;20063;-77
2023/12/06 01:27:00;;;;;;;24.30;13.18;;;-6.30;96.50;;;;;;4934988;29;20035;-78
2023/12/06 01:29:26;;;;;;;23.30;13.40;;;-6.30;96.60;;;;;;4916446;29;20028;-77
2023/12/06 01:31:52;;;;;;;24.05;13.90;;;-6.30;96.70;;;;;;4934844;29;20024;-76
2023/12/06 01:34:19;;;;;;;26.55;13.25;;;-6.30;96.80;;;;;;4934096;29;20365;-77
2023/12/06 01:36:45;;;;;;;;;;;-6.40;96.80;;;;;;4935121;29;20023;-77
2023/12/06 01:39:10;;;;;;;24.92;13.05;;;-6.40;96.80;;;;;;4935086;29;20279;-77
2023/12/06 01:41:36;;;;;;;24.52;13.65;;;-6.40;96.70;;;;;;4911119;29;20039;-77
2023/12/06 01:44:03;;;;;;;29.13;13.55;;;-6.40;96.80;;;;;;4917102;29;20445;-77
2023/12/06 01:46:29;;;;;;;25.10;12.73;;;-6.40;96.80;;;;;;4931795;29;20026;-79
2023/12/06 01:48:57;;;;;;;22.83;12.15;;;-6.40;96.90;;;;;;4928406;29;20552;-76
2023/12/06 01:51:23;;;;;;;25.15;13.75;;;-6.30;97.00;;;;;;4917636;29;20024;-78
2023/12/06 01:53:49;;;;;;;21.42;10.85;;;-6.30;97.00;;;;;;4929326;29;20027;-78
2023/12/06 01:56:17;;;;;;;27.88;13.15;;;-6.30;97.00;;;;;;4928123;29;20036;-77
2023/12/06 01:58:43;;;;;;;30.13;12.73;;;-6.30;97.10;;;;;;4934383;29;20106;-79
2023/12/06 02:01:09;;;;;;;24.40;13.30;;;-6.20;97.10;;;;;;4930276;29;20031;-78
2023/12/06 02:03:36;;;;;;;27.80;14.15;;;-6.10;97.10;;;;;;4934542;29;20576;-78
2023/12/06 02:06:03;;;;;;;24.65;13.40;;;-6.10;97.10;;;;;;4917112;29;20435;-78
2023/12/06 02:08:31;;;;;;;23.38;12.88;;;-6.10;97.20;;;;;;4934469;29;20521;-78
2023/12/06 02:10:57;;;;;;;22.40;11.73;;;-6.10;97.10;;;;;;4934564;29;20028;-77
2023/12/06 02:13:23;;;;;;;22.38;12.23;;;-6.10;97.20;;;;;;4932230;29;20474;-77
2023/12/06 02:15:50;;;;;;;26.83;14.40;;;-6.00;97.30;;;;;;4938217;29;20035;-76
2023/12/06 02:18:17;;;;;;;22.85;10.65;;;-6.00;97.20;;;;;;4934704;29;20024;-79
2023/12/06 02:20:44;;;;;;;33.20;14.77;;;-6.00;97.10;;;;;;4934468;29;20519;-78
2023/12/06 02:23:11;;;;;;;18.88;11.00;;;-6.00;97.10;;;;;;4934587;29;20413;-77
2023/12/06 02:25:37;;;;;;;20.83;13.50;;;-6.00;97.10;;;;;;4934670;29;20036;-76
2023/12/06 02:28:02;;;;;;;16.23;10.40;;;-6.00;97.00;;;;;;4934772;29;20057;-77
2023/12/06 02:30:28;;;;;;;26.92;13.13;;;-6.00;97.00;;;;;;4934705;29;20083;-77
2023/12/06 02:32:54;;;;;;;21.88;12.80;;;-6.00;97.00;;;;;;4934630;29;20024;-77
2023/12/06 02:35:30;;;;;;;26.00;14.88;;;-6.00;96.90;;;;;;4917018;29;20035;-77
2023/12/06 02:37:58;;;;;;;26.17;14.32;;;-6.00;96.90;;;;;;4925579;29;20059;-78
2023/12/06 02:40:27;;;;;;;25.17;13.05;;;-6.10;96.90;;;;;;4934299;29;20074;-78
2023/12/06 02:42:53;;;;;;;28.05;16.83;;;-6.00;96.90;;;;;;4925994;29;20055;-78
2023/12/06 02:45:19;;;;;;;27.75;16.17;;;-6.00;96.90;;;;;;4927219;29;20036;-77
2023/12/06 02:47:45;;;;;;;26.75;15.13;;;-6.00;96.90;;;;;;4936396;29;20028;-78
2023/12/06 02:50:11;;;;;;;29.97;14.73;;;-6.00;96.90;;;;;;4943608;29;20022;-78
2023/12/06 02:52:38;;;;;;;26.83;16.00;;;-6.00;96.80;;;;;;4938021;29;20022;-76
2023/12/06 02:55:04;;;;;;;28.35;16.42;;;-6.00;96.80;;;;;;4919868;29;20028;-77
2023/12/06 02:57:30;;;;;;;29.55;14.52;;;-6.00;96.70;;;;;;4937875;29;20063;-77
2023/12/06 02:59:55;;;;;;;26.70;14.35;;;-6.00;96.80;;;;;;4937888;29;20087;-78
2023/12/06 03:02:21;;;;;;;24.70;13.05;;;-6.00;96.80;;;;;;4939079;29;20034;-76
2023/12/06 03:04:47;;;;;;;24.15;13.15;;;-6.00;96.80;;;;;;4938871;29;20062;-77
2023/12/06 03:07:13;;;;;;;26.75;13.93;;;-6.00;96.90;;;;;;4937983;29;20106;-75
2023/12/06 03:09:39;;;;;;;33.28;15.02;;;-6.00;96.90;;;;;;4937797;29;20190;-76
2023/12/06 03:12:07;;;;;;;22.10;12.48;;;-5.90;96.90;;;;;;4935387;29;20027;-76
2023/12/06 03:14:33;;;;;;;22.23;11.85;;;-5.90;97.00;;;;;;4937220;29;20103;-76
2023/12/06 03:16:59;;;;;;;24.85;13.52;;;-5.90;97.00;;;;;;4920048;29;20028;-76
2023/12/06 03:19:25;;;;;;;25.25;12.50;;;-5.90;97.00;;;;;;4937102;29;20030;-77
2023/12/06 03:21:50;;;;;;;22.63;11.85;;;-5.90;97.10;;;;;;4937296;29;20100;-77
2023/12/06 03:24:16;;;;;;;27.95;13.20;;;-5.90;97.10;;;;;;4938694;29;20054;-79
2023/12/06 03:26:42;;;;;;;27.98;13.85;;;-5.90;97.10;;;;;;4939452;29;20039;-77
2023/12/06 03:29:08;;;;;;;22.48;12.90;;;-5.80;97.10;;;;;;4939927;29;20047;-77
2023/12/06 03:31:34;;;;;;;27.77;12.85;;;-5.80;97.00;;;;;;4937439;29;20035;-77
2023/12/06 03:34:03;;;;;;;24.98;13.60;;;-5.80;97.00;;;;;;4937129;29;20034;-78
2023/12/06 03:36:29;;;;;;;27.13;12.75;;;-5.80;97.00;;;;;;4934104;29;20023;-77
2023/12/06 03:38:55;;;;;;;28.67;15.68;;;-5.80;96.90;;;;;;4936846;29;20020;-77
2023/12/06 03:41:21;;;;;;;24.48;15.18;;;-5.80;96.90;;;;;;4928575;29;20032;-78
2023/12/06 03:43:47;;;;;;;28.42;14.35;;;-5.80;96.80;;;;;;4926397;29;20115;-76
2023/12/06 03:46:13;;;;;;;26.13;12.90;;;-5.80;96.80;;;;;;4936628;29;20102;-78
2023/12/06 03:48:40;;;;;;;22.05;13.48;;;-5.80;96.90;;;;;;4923439;29;20505;-77
2023/12/06 03:51:06;;;;;;;27.33;14.43;;;-5.80;96.90;;;;;;4931570;29;20081;-78
2023/12/06 03:53:32;;;;;;;27.88;16.95;;;-5.80;96.90;;;;;;4937112;29;20020;-77
2023/12/06 03:55:57;;;;;;;25.75;13.20;;;-5.80;96.90;;;;;;4942366;29;20500;-77
2023/12/06 03:58:23;;;;;;;26.05;13.77;;;-5.90;96.90;;;;;;4936257;29;20469;-76
2023/12/06 04:00:49;;;;;;;28.58;13.68;;;-5.80;97.10;;;;;;4930801;29;20536;-78
2023/12/06 04:03:15;;;;;;;22.63;13.68;;;-5.80;97.10;;;;;;4936113;29;20055;-78
2023/12/06 04:05:44;;;;;;;24.42;14.18;;;-5.80;97.10;;;;;;4926096;29;20442;-77
2023/12/06 04:08:11;;;;;;;22.60;13.80;;;-5.80;97.00;;;;;;4936078;29;20062;-76
2023/12/06 04:10:37;;;;;;;22.67;14.88;;;-5.80;97.00;;;;;;4936260;29;20035;-77
2023/12/06 04:13:04;;;;;;;30.27;16.10;;;-5.80;97.00;;;;;;4908733;29;20394;-78
2023/12/06 04:15:30;;;;;;;27.67;14.95;;;-5.80;97.00;;;;;;4936121;29;20141;-77
2023/12/06 04:17:56;;;;;;;27.40;13.52;;;-5.80;97.00;;;;;;4930125;29;20020;-77
2023/12/06 04:20:23;;;;;;;26.88;13.77;;;-5.80;97.10;;;;;;4916508;29;20043;-79
2023/12/06 04:22:49;;;;;;;32.13;13.45;;;-5.80;97.10;;;;;;4935465;29;20012;-79
2023/12/06 04:25:15;;;;;;;25.90;13.53;;;-5.80;97.20;;;;;;4912442;29;20119;-79
2023/12/06 04:27:42;;;;;;;27.13;15.38;;;-5.80;97.20;;;;;;4935902;29;20020;-76
2023/12/06 04:30:10;;;;;;;32.28;14.65;;;-5.70;97.20;;;;;;4931190;29;20027;-79
2023/12/06 04:32:36;;;;;;;25.77;13.85;;;-5.70;97.20;;;;;;4935938;29;20469;-78
2023/12/06 04:35:03;;;;;;;28.10;16.17;;;-5.70;97.10;;;;;;4935864;29;20106;-77
2023/12/06 04:37:29;;;;;;;25.65;14.13;;;-5.70;97.20;;;;;;4934555;29;20433;-78
2023/12/06 04:39:54;;;;;;;31.10;15.30;;;-5.60;97.20;;;;;;4918618;29;20075;-78
2023/12/06 04:42:20;;;;;;;28.60;15.55;;;-5.60;97.20;;;;;;4921928;29;20087;-79
2023/12/06 04:44:46;;;;;;;32.30;17.80;;;-5.60;97.10;;;;;;4924076;29;20493;-77
2023/12/06 04:47:12;;;;;;;29.00;17.70;;;-5.60;97.10;;;;;;4932977;29;20030;-76
2023/12/06 04:49:38;;;;;;;35.97;19.83;;;-5.60;97.00;;;;;;4935862;29;20036;-79
2023/12/06 04:52:04;;;;;;;30.63;19.45;;;-5.60;97.00;;;;;;4922494;29;20032;-79
2023/12/06 04:54:31;;;;;;;41.40;20.10;;;-5.60;97.00;;;;;;4935864;29;20034;-78
2023/12/06 04:56:57;;;;;;;33.75;18.65;;;-5.60;97.00;;;;;;4935501;29;20572;-79
2023/12/06 04:59:24;;;;;;;32.17;19.00;;;-5.60;97.20;;;;;;4935520;29;20031;-77
2023/12/06 05:01:50;;;;;;;33.00;19.73;;;-5.60;97.50;;;;;;4935550;29;20023;-77
2023/12/06 05:04:16;;;;;;;31.65;18.63;;;-5.60;97.50;;;;;;4935463;29;20122;-79
2023/12/06 05:06:41;;;;;;;26.92;16.33;;;-5.50;97.60;;;;;;4935042;29;20111;-76
2023/12/06 05:09:07;;;;;;;30.60;17.17;;;-5.50;97.50;;;;;;4934369;29;20373;-78
2023/12/06 05:11:34;;;;;;;26.17;12.30;;;-5.50;97.40;;;;;;4915626;29;20055;-77
2023/12/06 05:14:00;;;;;;;27.63;14.63;;;-5.50;97.20;;;;;;4916966;29;20508;-76
2023/12/06 05:16:25;;;;;;;26.63;15.10;;;-5.50;97.00;;;;;;4918007;29;20035;-78
2023/12/06 05:18:52;;;;;;;29.55;13.73;;;-5.50;96.90;;;;;;4934904;29;20532;-78
2023/12/06 05:21:18;;;;;;;25.43;11.80;;;-5.50;96.80;;;;;;4935011;29;20028;-77
2023/12/06 05:23:44;;;;;;;27.38;14.52;;;-5.50;96.80;;;;;;4929721;29;20572;-76
2023/12/06 05:26:09;;;;;;;31.75;13.80;;;-5.50;96.70;;;;;;4934810;29;20031;-79
2023/12/06 05:28:35;;;;;;;24.65;12.65;;;-5.50;96.70;;;;;;4934225;29;20019;-80
2023/12/06 05:31:01;;;;;;;25.75;14.07;;;-5.60;96.50;;;;;;4934908;29;20019;-80
2023/12/06 05:33:30;;;;;;;26.52;13.85;;;-5.50;96.50;;;;;;4935171;29;20023;-78
2023/12/06 05:35:55;;;;;;;24.23;12.38;;;-5.50;96.50;;;;;;4938660;29;20030;-81
2023/12/06 05:38:22;;;;;;;24.77;12.57;;;-5.50;96.40;;;;;;4922968;29;20032;-78
2023/12/06 05:40:49;;;;;;;21.40;14.05;;;-5.60;96.30;;;;;;4929482;29;20050;-79
2023/12/06 05:43:15;;;;;;;17.23;9.48;;;-5.60;96.60;;;;;;4933279;29;20024;-80
2023/12/06 05:45:41;;;;;;;27.27;13.60;;;-5.60;96.70;;;;;;4934519;29;20027;-79
2023/12/06 05:48:07;;;;;;;29.52;14.63;;;-5.60;96.80;;;;;;4928697;29;20055;-79
2023/12/06 05:50:34;;;;;;;29.33;14.77;;;-5.60;96.70;;;;;;4930298;29;20110;-78
2023/12/06 05:53:00;;;;;;;25.37;13.50;;;-5.60;96.70;;;;;;4935810;29;20063;-81
2023/12/06 05:55:26;;;;;;;24.55;13.15;;;-5.60;96.70;;;;;;4915251;29;20469;-80
2023/12/06 05:57:53;;;;;;;23.10;11.02;;;-5.60;96.70;;;;;;4930752;29;20040;-78
2023/12/06 06:00:19;;;;;;;26.83;10.82;;;-5.60;96.70;;;;;;4925526;29;20016;-80
2023/12/06 06:02:45;;;;;;;27.60;13.43;;;-5.60;96.70;;;;;;4934438;29;20032;-78
2023/12/06 06:05:11;;;;;;;21.85;11.23;;;-5.60;96.60;;;;;;4932701;29;20394;-81
2023/12/06 06:07:37;;;;;;;41.22;17.58;;;-5.60;96.80;;;;;;4930741;29;20074;-80
2023/12/06 06:10:03;;;;;;;25.50;12.68;;;-5.60;97.00;;;;;;4903008;29;20032;-80
2023/12/06 06:12:30;;;;;;;26.20;14.70;;;-5.60;96.70;;;;;;4926688;29;20024;-80
2023/12/06 06:14:56;;;;;;;29.90;15.63;;;-5.60;96.80;;;;;;4937542;29;20428;-80
2023/12/06 06:17:22;;;;;;;22.63;13.65;;;-5.60;97.00;;;;;;4936943;29;20262;-81
2023/12/06 06:19:48;;;;;;;28.88;16.45;;;-5.60;96.90;;;;;;4920871;29;20099;-81
2023/12/06 06:22:14;;;;;;;21.67;13.30;;;-5.60;97.00;;;;;;4921305;29;20032;-80
2023/12/06 06:24:40;;;;;;;27.48;11.98;;;-5.60;97.10;;;;;;4923065;29;20126;-80
2023/12/06 06:27:06;;;;;;;27.60;14.18;;;-5.60;97.10;;;;;;4939283;29;20076;-80
2023/12/06 06:29:32;;;;;;;24.38;12.15;;;-5.50;97.10;;;;;;4920800;29;20024;-82
2023/12/06 06:31:58;;;;;;;22.88;11.82;;;-5.50;97.20;;;;;;4938443;29;20397;-81
2023/12/06 06:34:24;;;;;;;23.73;12.10;;;-5.50;97.30;;;;;;4938148;29;20024;-80
2023/12/06 06:36:50;;;;;;;30.80;13.75;;;-5.50;97.10;;;;;;4920928;29;20388;-81
2023/12/06 06:39:15;;;;;;;28.30;13.52;;;-5.50;97.00;;;;;;4920854;29;20485;-80
2023/12/06 06:41:41;;;;;;;24.92;12.20;;;-5.40;97.00;;;;;;4937968;29;20466;-79
2023/12/06 06:44:07;;;;;;;31.60;14.20;;;-5.50;96.90;;;;;;4937902;29;20441;-81
2023/12/06 06:46:33;;;;;;;26.95;13.57;;;-5.40;97.00;;;;;;4935309;29;20027;-81
2023/12/06 06:48:59;;;;;;;24.17;12.90;;;-5.40;97.00;;;;;;4931104;29;20126;-81
2023/12/06 06:51:36;;;;;;;25.38;13.88;;;-5.40;97.40;;;;;;4920710;29;20473;-83
2023/12/06 06:54:03;;;;;;;26.50;13.67;;;-5.50;97.10;;;;;;4939333;29;20080;-80
2023/12/06 06:56:28;;;;;;;24.67;12.63;;;-5.40;97.10;;;;;;4918203;29;20039;-80
2023/12/06 06:58:54;;;;;;;26.10;12.82;;;-5.40;97.30;;;;;;4939232;29;20024;-79
2023/12/06 07:01:20;;;;;;;29.33;15.60;;;-5.40;97.20;;;;;;4938151;29;20054;-81
2023/12/06 07:03:46;;;;;;;22.33;11.13;;;-5.40;97.00;;;;;;4921012;29;20024;-82
2023/12/06 07:06:12;;;;;;;26.73;12.68;;;-5.40;97.00;;;;;;4937881;29;20370;-81
2023/12/06 07:08:39;;;;;;;22.67;9.52;;;-5.40;96.90;;;;;;4921304;29;20028;-79
2023/12/06 07:11:06;;;;;;;26.60;13.50;;;-5.40;97.10;;;;;;4937811;29;20081;-80
2023/12/06 07:13:32;;;;;;;20.50;10.98;;;-5.40;97.00;;;;;;4922035;29;20032;-80
2023/12/06 07:15:58;;;;;;;25.70;12.98;;;-5.40;96.90;;;;;;4923925;29;20060;-79
2023/12/06 07:18:25;;;;;;;28.98;15.52;;;-5.30;96.90;;;;;;4938875;29;20024;-80
2023/12/06 07:20:52;;;;;;;28.05;14.23;;;-5.30;97.00;;;;;;4937017;29;20636;-81
2023/12/06 07:23:18;;;;;;;24.42;14.73;;;-5.30;96.90;;;;;;4936863;29;20131;-79
2023/12/06 07:25:47;;;;;;;26.13;13.60;;;-5.30;96.70;;;;;;4918009;29;20020;-80
2023/12/06 07:28:13;;;;;;;24.73;14.63;;;-5.30;96.60;;;;;;4937431;29;20141;-79
2023/12/06 07:30:40;;;;;;;34.15;14.52;;;-5.20;96.60;;;;;;4919762;29;20024;-80
2023/12/06 07:33:07;;;;;;;36.15;17.45;;;-5.20;96.70;;;;;;4937869;29;20440;-81
2023/12/06 07:35:34;;;;;;;33.05;16.67;;;-5.20;96.60;;;;;;4937122;29;20036;-80
2023/12/06 07:38:00;;;;;;;36.50;19.63;;;-5.20;96.50;;;;;;4920414;29;20489;-81
2023/12/06 07:40:27;;;;;;;27.40;15.38;;;-5.20;96.50;;;;;;4939682;29;20061;-79
2023/12/06 07:42:52;;;;;;;28.20;15.80;;;-5.20;96.40;;;;;;4938826;29;20032;-82
2023/12/06 07:45:18;;;;;;;30.05;14.95;;;-5.20;96.30;;;;;;4938010;29;20028;-80
2023/12/06 07:47:44;;;;;;;24.75;12.05;;;-5.10;96.30;;;;;;4921084;29;20048;-80
2023/12/06 07:50:10;;;;;;;25.70;12.45;;;-5.10;96.30;;;;;;4920516;29;20030;-80
2023/12/06 07:52:37;;;;;;;24.17;13.80;;;-5.10;96.20;;;;;;4937521;29;20028;-80
2023/12/06 07:55:06;;;;;;;23.88;12.05;;;-5.10;96.40;;;;;;4937788;29;20039;-79
2023/12/06 07:57:33;;;;;;;25.95;14.32;;;-5.10;96.30;;;;;;4937869;29;20028;-81
2023/12/06 07:59:59;;;;;;;28.25;14.00;;;-5.10;96.30;;;;;;4936734;29;20052;-81
2023/12/06 08:02:25;;;;;;;30.77;14.88;;;-5.10;96.30;;;;;;4927442;29;20036;-81
2023/12/06 08:04:51;;;;;;;19.70;10.80;;;-5.10;96.20;;;;;;4937023;29;20036;-80
2023/12/06 08:07:17;;;;;;;23.90;13.90;;;-5.00;96.30;;;;;;4923679;29;20080;-81
2023/12/06 08:09:44;;;;;;;26.48;13.25;;;-5.00;96.00;;;;;;4936975;29;20032;-80
2023/12/06 08:12:10;;;;;;;25.02;13.65;;;-5.00;96.00;;;;;;4936907;29;20353;-79
2023/12/06 08:14:39;;;;;;;23.35;14.43;;;-5.00;95.80;;;;;;4938142;29;20110;-81
2023/12/06 08:17:06;;;;;;;21.10;11.75;;;-5.00;95.70;;;;;;4936706;29;20397;-81
2023/12/06 08:19:31;;;;;;;26.88;14.82;;;-4.90;95.60;;;;;;4935993;29;20058;-81
2023/12/06 08:21:57;;;;;;;22.50;12.85;;;-4.90;95.60;;;;;;4936505;29;20455;-80
2023/12/06 08:24:23;;;;;;;25.58;12.63;;;-4.90;95.60;;;;;;4936505;29;20027;-82
2023/12/06 08:26:50;;;;;;;25.85;12.65;;;-4.90;95.50;;;;;;4919440;29;20114;-79
2023/12/06 08:29:16;;;;;;;22.60;12.73;;;-4.80;95.40;;;;;;4923472;29;20031;-80
2023/12/06 08:31:42;;;;;;;24.75;12.43;;;-4.80;95.50;;;;;;4918946;29;20353;-80
2023/12/06 08:34:08;;;;;;;15.20;8.13;;;-4.80;95.30;;;;;;4934070;29;20106;-81
2023/12/06 08:36:34;;;;;;;21.17;10.30;;;-4.80;95.30;;;;;;4924741;29;20023;-80
2023/12/06 08:39:00;;;;;;;21.00;11.60;;;-4.80;95.10;;;;;;4936217;29;20038;-81
2023/12/06 08:41:26;;;;;;;24.02;12.65;;;-4.80;95.00;;;;;;4935998;29;20020;-80
2023/12/06 08:43:52;;;;;;;25.33;13.70;;;-4.80;95.00;;;;;;4933233;29;20028;-79
2023/12/06 08:46:18;;;;;;;22.05;11.23;;;-4.70;95.10;;;;;;4938386;29;20020;-82
2023/12/06 08:48:44;;;;;;;19.55;11.23;;;-4.80;95.00;;;;;;4936530;29;20044;-79
2023/12/06 08:51:10;;;;;;;21.15;12.07;;;-4.70;95.00;;;;;;4932011;29;20035;-81
2023/12/06 08:53:36;;;;;;;19.08;10.65;;;-4.70;94.80;;;;;;4917973;29;20023;-81
2023/12/06 08:56:01;;;;;;;19.90;11.55;;;-4.70;94.70;;;;;;4937002;29;20031;-80
2023/12/06 08:58:27;;;;;;;20.38;11.93;;;-4.70;94.70;;;;;;4945148;29;20107;-81
2023/12/06 09:00:53;;;;;;;21.23;12.43;;;-4.70;94.80;;;;;;4928243;29;20039;-81
2023/12/06 09:03:20;;;;;;;25.65;12.73;;;-4.70;94.80;;;;;;4931846;29;20140;-80
2023/12/06 09:05:48;;;;;;;25.05;13.80;;;-4.70;94.80;;;;;;4937798;29;20153;-80
2023/12/06 09:08:15;;;;;;;29.58;13.95;;;-4.70;94.90;;;;;;4939884;29;20046;-79
2023/12/06 09:10:41;;;;;;;28.58;15.18;;;-4.70;95.00;;;;;;4936059;29;20031;-79
2023/12/06 09:13:07;;;;;;;25.30;15.25;;;-4.60;95.20;;;;;;4935964;29;20082;-80
2023/12/06 09:15:33;;;;;;;28.65;15.77;;;-4.50;95.20;;;;;;4936948;29;20484;-80
2023/12/06 09:17:59;;;;;;;27.05;13.82;;;-4.50;94.80;;;;;;4922357;29;20028;-79
2023/12/06 09:20:25;;;;;;;27.37;14.77;;;-4.40;94.40;;;;;;4939926;29;20055;-80
2023/12/06 09:22:51;;;;;;;29.63;17.30;;;-4.40;93.90;;;;;;4942845;29;20028;-79
2023/12/06 09:25:17;;;;;;;27.98;16.65;;;-4.40;93.60;;;;;;4925327;29;20134;-79
2023/12/06 09:27:43;;;;;;;29.13;16.45;;;-4.30;93.40;;;;;;4936133;29;20031;-82
2023/12/06 09:30:10;;;;;;;24.23;15.23;;;-4.30;93.50;;;;;;4935559;29;20028;-80
2023/12/06 09:32:35;;;;;;;37.33;18.75;;;-4.30;93.60;;;;;;4918464;29;20024;-81
2023/12/06 09:35:01;;;;;;;32.00;19.70;;;-4.30;93.40;;;;;;4935211;29;20034;-79
2023/12/06 09:37:27;;;;;;;29.40;17.00;;;-4.20;93.40;;;;;;4935064;29;20032;-80
2023/12/06 09:39:53;;;;;;;34.42;19.38;;;-4.20;93.40;;;;;;4918153;29;20020;-81
2023/12/06 09:42:23;;;;;;;41.50;23.33;;;-4.20;93.20;;;;;;4935180;29;20042;-81
2023/12/06 09:44:51;;;;;;;45.30;23.80;;;-4.20;93.20;;;;;;4933686;29;20062;-79
2023/12/06 09:47:18;;;;;;;29.33;19.10;;;-4.20;93.10;;;;;;4934901;29;20108;-81
2023/12/06 09:49:44;;;;;;;24.35;16.35;;;-4.20;92.90;;;;;;4934728;29;20034;-79
2023/12/06 09:52:19;;;;;;;27.23;15.27;;;-4.20;92.90;;;;;;4935243;29;20473;-80
2023/12/06 09:54:47;;;;;;;25.10;15.65;;;-4.20;92.60;;;;;;4935069;29;20042;-80
2023/12/06 09:57:13;;;;;;;32.83;17.13;;;-4.30;92.80;;;;;;4918668;29;20034;-80
2023/12/06 09:59:42;;;;;;;31.70;19.58;;;-4.30;92.70;;;;;;4935232;29;20461;-80
2023/12/06 10:02:08;;;;;;;32.40;16.85;;;-4.30;92.60;;;;;;4933663;29;20050;-78
2023/12/06 10:04:35;;;;;;;35.80;23.02;;;-4.30;92.60;;;;;;4934904;29;20040;-79
2023/12/06 10:07:01;;;;;;;40.10;25.23;;;-4.30;92.70;;;;;;4934750;29;20055;-80
2023/12/06 10:09:28;;;;;;;39.33;20.93;;;-4.30;92.70;;;;;;4914535;29;20036;-81
2023/12/06 10:12:08;;;;;;;41.42;18.60;;;-4.20;93.20;;;;;;4930126;29;20016;-83
2023/12/06 10:14:34;;;;;;;36.95;23.95;;;-4.20;93.60;;;;;;4935043;29;20024;-81
2023/12/06 10:17:00;;;;;;;40.88;21.30;;;-4.20;93.60;;;;;;4933509;29;20032;-81
2023/12/06 10:19:26;;;;;;;36.70;22.27;;;-4.20;93.60;;;;;;4934763;29;20015;-81
2023/12/06 10:21:53;;;;;;;48.63;24.88;;;-4.20;93.50;;;;;;4934741;29;20140;-80
2023/12/06 10:24:19;;;;;;;31.63;17.88;;;-4.20;93.20;;;;;;4934368;29;20067;-80
2023/12/06 10:26:46;;;;;;;36.78;18.65;;;-4.20;93.40;;;;;;4935408;29;20497;-82
2023/12/06 10:29:12;;;;;;;38.70;20.15;;;-4.20;93.70;;;;;;4935074;29;20030;-81
2023/12/06 10:31:42;;;;;;;40.15;20.17;;;-4.20;93.70;;;;;;4941078;29;20032;-80
2023/12/06 10:34:09;;;;;;;28.95;16.30;;;-4.10;93.70;;;;;;4936594;29;20070;-80
2023/12/06 10:36:38;;;;;;;28.58;16.58;;;-4.10;93.40;;;;;;4933490;29;20027;-81
2023/12/06 10:39:14;;;;;;;54.05;28.13;;;-4.10;93.30;;;;;;4921124;29;20096;-80
2023/12/06 10:41:46;;;;;;;40.58;23.38;;;-4.10;93.00;;;;;;4917443;29;20453;-81
2023/12/06 10:44:12;;;;;;;41.08;23.27;;;-4.10;93.20;;;;;;4933028;29;20039;-79
2023/12/06 10:46:39;;;;;;;34.95;21.60;;;-4.10;93.40;;;;;;4934637;29;20083;-80
2023/12/06 10:49:07;;;;;;;26.43;14.93;;;-4.10;93.40;;;;;;4935357;29;20493;-81
2023/12/06 10:51:35;;;;;;;24.95;13.77;;;-4.00;93.40;;;;;;4914934;29;20410;-79
2023/12/06 10:54:01;;;;;;;29.50;16.45;;;-4.00;93.70;;;;;;4934401;29;20024;-81
2023/12/06 10:56:28;;;;;;;21.90;13.93;;;-4.00;93.80;;;;;;4936690;29;20031;-80
2023/12/06 10:58:59;;;;;;;36.70;21.10;;;-4.00;93.80;;;;;;4918723;29;20035;-81
2023/12/06 11:01:25;;;;;;;41.35;21.77;;;-4.10;93.60;;;;;;4917294;29;20036;-81
2023/12/06 11:03:52;;;;;;;38.88;22.95;;;-4.10;93.10;;;;;;4934272;29;20043;-81
2023/12/06 11:06:43;;;;;;;39.13;24.05;;;-4.20;93.10;;;;;;4934412;29;20094;-81
2023/12/06 11:09:26;;;;;;;38.30;24.05;;;-4.30;93.10;;;;;;4931511;29;20027;-80
2023/12/06 11:12:29;;;;;;;38.35;23.77;;;-4.30;93.40;;;;;;4915678;29;20027;-80
2023/12/06 11:15:18;;;;;;;43.75;22.65;;;-4.30;93.00;;;;;;4937787;29;20027;-82
2023/12/06 11:18:10;;;;;;;38.38;23.73;;;-4.40;92.90;;;;;;4925599;29;20027;-80
2023/12/06 11:20:41;;;;;;;39.97;24.13;;;-4.40;93.00;;;;;;4937716;29;20111;-81
2023/12/06 11:23:09;;;;;;;40.85;23.20;;;-4.40;93.00;;;;;;4936819;29;20028;-80
2023/12/06 11:25:44;;;;;;;46.95;24.35;;;-4.40;93.20;;;;;;4937212;29;20062;-81
2023/12/06 11:28:15;;;;;;;38.58;23.25;;;-4.40;93.40;;;;;;4937473;29;20027;-80
2023/12/06 11:30:48;;;;;;;39.80;23.27;;;-4.40;94.00;;;;;;4920201;29;20366;-81
2023/12/06 11:33:15;;;;;;;37.20;22.83;;;-4.30;94.40;;;;;;4920085;29;20034;-82
2023/12/06 11:35:45;;;;;;;38.25;24.00;;;-4.30;93.80;;;;;;4919750;29;20087;-80
2023/12/06 11:38:11;;;;;;;34.08;22.92;;;-4.40;93.50;;;;;;4936179;29;20028;-81
2023/12/06 11:40:47;;;;;;;46.40;23.58;;;-4.40;93.40;;;;;;4937386;29;20027;-80
2023/12/06 11:43:14;;;;;;;37.50;21.65;;;-4.50;92.90;;;;;;4930472;29;20024;-81
2023/12/06 11:45:40;;;;;;;31.65;20.77;;;-4.50;93.20;;;;;;4914319;29;20469;-80
2023/12/06 11:48:06;;;;;;;40.33;21.05;;;-4.50;93.40;;;;;;4937306;29;20071;-82
2023/12/06 11:50:43;;;;;;;36.35;19.67;;;-4.50;94.30;;;;;;4938159;29;20047;-80
2023/12/06 11:53:11;;;;;;;39.67;22.38;;;-4.50;95.30;;;;;;4918937;29;20079;-80
2023/12/06 11:55:37;;;;;;;37.92;22.38;;;-4.50;96.00;;;;;;4937753;29;20108;-82
2023/12/06 11:58:10;;;;;;;33.67;21.50;;;-4.50;96.10;;;;;;4937468;29;20020;-81
2023/12/06 12:00:44;;;;;;;43.92;25.42;;;-4.50;96.00;;;;;;4937461;29;20403;-82
2023/12/06 12:03:11;;;;;;;39.25;20.73;;;-4.50;95.80;;;;;;4941028;29;20031;-81
2023/12/06 12:05:38;;;;;;;39.25;23.45;;;-4.50;95.90;;;;;;4928622;29;20039;-81
2023/12/06 12:08:04;;;;;;;45.17;21.83;;;-4.50;96.30;;;;;;4937159;29;20027;-81
2023/12/06 12:10:31;;;;;;;33.30;20.90;;;-4.50;96.60;;;;;;4920000;29;20028;-82
2023/12/06 12:12:57;;;;;;;49.38;23.00;;;-4.50;96.70;;;;;;4937614;29;20027;-80
2023/12/06 12:15:25;;;;;;;36.33;21.92;;;-4.50;96.60;;;;;;4942691;29;20028;-80
2023/12/06 12:17:51;;;;;;;;;;;-4.50;96.50;;;;;;4940280;29;20104;-80
2023/12/06 12:20:17;;;;;;;38.93;21.10;;;-4.50;96.30;;;;;;4939021;29;20452;-79
2023/12/06 12:22:50;;;;;;;35.47;20.92;;;-4.50;96.20;;;;;;4938380;29;20033;-80
2023/12/06 12:25:18;;;;;;;36.00;21.33;;;-4.50;96.20;;;;;;4909452;29;20063;-80
2023/12/06 12:27:46;;;;;;;45.92;24.75;;;-4.50;96.20;;;;;;4924792;29;20088;-81